Stations météo

réclame
Mon MeteoGroup
Reinosa, Espagne (8032): Température de l'air & dewpoint: 05.12.2017 10:00:00 - 11.12.2017 10:00:00 (CET)Reinosa, Espagne (8032): Vitesse du vent & gusts: 05.12.2017 10:00:00 - 11.12.2017 10:00:00 (CET)Reinosa, Espagne (8032): Direction du vent: 05.12.2017 10:00:00 - 11.12.2017 10:00:00 (CET)Reinosa, Espagne (8032): Quantités de précipitations: 05.12.2017 10:00:00 - 11.12.2017 10:00:00 (CET)
Date & Time tt [°C] td [°C] ff [km/h] ff [knt] fx [km/h] fx [knt] dd rr [mm]
11.12.2017 10:00:00 - - - - - - - -
11.12.2017 09:00:00 0,2 -0,5 3 1 9 5 W 0,0
11.12.2017 08:00:00 0,9 0,2 3 1 10 5 SSW 0,0
11.12.2017 07:00:00 1,0 0,2 2 1 9 5 W -
11.12.2017 06:00:00 1,0 0,2 8 4 34 19 S 1,1
11.12.2017 05:00:00 1,6 -0,3 20 11 35 19 NW 0,7
11.12.2017 04:00:00 4,7 1,5 15 8 44 24 SW 0,0
11.12.2017 03:00:00 4,6 2,1 18 10 39 21 SSW 0,0
11.12.2017 02:00:00 6,0 3,4 12 6 51 27 SSW 1,4
11.12.2017 01:00:00 5,3 3,0 26 14 98 53 W -
11.12.2017 00:00:00 8,9 6,5 50 27 114 61 SSW 5,8
10.12.2017 23:00:00 8,6 6,5 60 32 122 66 SSW 4,8
10.12.2017 22:00:00 9,2 7,0 67 36 117 63 SSW 2,7
10.12.2017 21:00:00 8,6 6,2 55 30 105 57 SSW 1,8
10.12.2017 20:00:00 9,4 6,7 54 29 90 49 SSW 1,0
10.12.2017 19:00:00 9,6 6,8 50 27 88 47 SSW -
10.12.2017 18:00:00 10,0 5,9 43 23 84 45 SW 0,7
10.12.2017 17:00:00 9,9 6,5 37 20 72 39 SW 0,7
10.12.2017 16:00:00 10,2 7,1 34 19 69 37 SW 0,6
10.12.2017 15:00:00 9,6 7,0 27 15 57 31 SSW 1,1
10.12.2017 14:00:00 9,6 6,8 24 13 48 26 SSW 0,4
10.12.2017 13:00:00 9,0 5,9 18 10 41 22 SSW -
10.12.2017 12:00:00 8,1 5,8 16 9 42 23 S 0,0
10.12.2017 11:00:00 8,0 5,1 13 7 31 17 SSW 0,0
10.12.2017 10:00:00 7,2 4,3 10 5 36 20 S 0,0
10.12.2017 09:00:00 7,0 3,8 23 12 54 29 S 0,0
10.12.2017 08:00:00 7,3 2,7 26 14 46 25 SW 0,0
10.12.2017 07:00:00 8,5 2,5 9 5 34 18 SE -
10.12.2017 06:00:00 8,8 1,9 19 11 44 24 SW 0,0
10.12.2017 05:00:00 8,2 2,7 21 11 48 26 SW 0,0
10.12.2017 04:00:00 8,2 3,0 27 15 45 25 SW 0,0
10.12.2017 03:00:00 8,3 2,5 18 10 39 21 W 0,0
10.12.2017 02:00:00 8,0 3,6 13 7 29 16 SW 0,0
10.12.2017 01:00:00 5,7 3,9 3 1 17 9 SE -
10.12.2017 00:00:00 4,4 3,6 4 2 12 7 W 0,0
09.12.2017 23:00:00 2,5 1,7 5 3 15 8 N 0,0
09.12.2017 22:00:00 2,5 1,7 4 2 13 7 NW 0,0
09.12.2017 21:00:00 3,1 2,3 5 3 10 5 NNE 0,0
09.12.2017 20:00:00 3,0 2,1 4 2 12 6 W 0,0
09.12.2017 19:00:00 4,0 3,0 6 3 11 6 ESE -
09.12.2017 18:00:00 2,9 2,1 6 3 11 6 ENE 0,0
09.12.2017 17:00:00 2,3 1,3 6 3 13 7 W 0,1
09.12.2017 16:00:00 3,3 2,3 3 2 8 4 N 0,3
09.12.2017 15:00:00 2,5 1,3 5 3 8 4 WNW 0,2
09.12.2017 14:00:00 2,1 0,9 1 1 9 5 WNW 0,5
09.12.2017 13:00:00 1,9 0,6 1 1 17 9 SSE -
09.12.2017 12:00:00 1,9 1,1 6 4 13 7 SSE 0,1
09.12.2017 11:00:00 1,4 0,6 9 5 12 6 SSE 0,1
09.12.2017 10:00:00 1,8 1,1 1 0 6 4 NNE 0,0
09.12.2017 09:00:00 0,9 0,2 1 1 9 5 SSE 0,0
09.12.2017 08:00:00 0,4 -0,3 4 2 10 5 SSW 0,0
09.12.2017 07:00:00 0,9 0,2 4 2 8 4 SSE -
09.12.2017 06:00:00 0,1 -0,7 4 2 9 5 WNW 0,0
09.12.2017 05:00:00 0,2 -0,5 0 0 7 4 N 0,0
09.12.2017 04:00:00 0,2 -0,5 3 2 6 4 W 0,0
09.12.2017 03:00:00 0,5 -0,3 3 2 6 4 W 0,0
09.12.2017 02:00:00 1,0 0,2 3 2 6 3 WSW 0,0
09.12.2017 01:00:00 1,2 0,4 5 3 7 4 SSE -
09.12.2017 00:00:00 1,6 0,9 4 2 6 3 SSE 0,0
08.12.2017 23:00:00 2,4 1,7 2 1 6 4 ENE 0,0
08.12.2017 22:00:00 2,3 1,5 0 0 7 4 N 0,0
08.12.2017 21:00:00 2,7 1,9 1 0 8 4 E 0,0
08.12.2017 20:00:00 2,8 2,1 1 1 6 3 ESE 0,1
08.12.2017 19:00:00 3,0 2,3 4 2 6 4 ESE -
08.12.2017 18:00:00 3,2 2,3 6 3 9 5 SE 0,0
08.12.2017 17:00:00 4,3 3,2 4 2 11 6 SSE 0,0
08.12.2017 16:00:00 5,6 4,6 1 0 8 4 N 0,0
08.12.2017 15:00:00 5,5 4,8 1 1 5 3 SSW 0,2
08.12.2017 14:00:00 5,5 4,8 0 0 5 3 S 0,2
08.12.2017 13:00:00 4,3 3,6 2 1 7 4 S -
08.12.2017 12:00:00 3,5 2,9 1 1 7 4 S 0,4
08.12.2017 11:00:00 2,6 2,1 2 1 6 4 SSW 0,2
08.12.2017 10:00:00 2,0 1,5 1 1 5 3 SSE 1,1
08.12.2017 09:00:00 1,2 0,6 5 3 8 4 W 0,4
08.12.2017 08:00:00 0,5 0,0 6 3 9 5 W 0,7
08.12.2017 07:00:00 0,7 0,2 3 1 6 3 W -
08.12.2017 06:00:00 0,7 0,2 3 2 9 5 W 0,1
08.12.2017 05:00:00 0,4 -0,3 4 2 6 4 WSW 0,2
08.12.2017 04:00:00 -0,4 -1,0 1 1 10 5 W 0,0
08.12.2017 03:00:00 -0,7 -1,2 1 1 9 5 W 0,0
08.12.2017 02:00:00 -1,5 -2,0 5 3 9 5 WNW 0,0
08.12.2017 01:00:00 -2,0 -2,7 5 3 9 5 WNW -
08.12.2017 00:00:00 -1,8 -2,5 3 2 6 4 WNW 0,0
07.12.2017 23:00:00 -1,0 -2,0 4 2 9 5 WSW 0,0
07.12.2017 22:00:00 0,0 -1,0 2 1 10 5 NNW 0,0
07.12.2017 21:00:00 0,1 -1,0 5 3 10 5 W 0,0
07.12.2017 20:00:00 0,9 -0,5 3 1 9 5 WNW 0,1
07.12.2017 19:00:00 0,9 -0,7 5 3 10 5 W -
07.12.2017 18:00:00 1,0 -1,0 5 3 8 4 W 0,0
07.12.2017 17:00:00 1,0 -1,4 4 2 12 6 WNW 0,0
07.12.2017 16:00:00 1,7 -1,2 10 5 22 12 SSE 0,0
07.12.2017 15:00:00 2,4 -1,7 9 5 18 10 SSE 0,0
07.12.2017 14:00:00 2,5 -1,4 10 5 16 9 SSE 0,0
07.12.2017 13:00:00 1,6 -2,0 9 5 19 11 SSE -
07.12.2017 12:00:00 1,2 -2,2 6 4 14 8 SSE 0,0
07.12.2017 11:00:00 2,1 -1,0 3 2 11 6 SE 0,0
07.12.2017 10:00:00 0,0 -1,7 3 1 8 4 SSE 0,0
07.12.2017 09:00:00 -0,7 -2,0 1 1 14 8 S 0,0
07.12.2017 08:00:00 -0,7 -2,0 5 3 10 5 WSW 0,0
07.12.2017 07:00:00 -1,0 -2,2 4 2 8 4 W -
07.12.2017 06:00:00 -0,9 -2,2 6 3 15 8 W 0,1
07.12.2017 05:00:00 -2,1 -3,3 5 3 10 5 S 0,0
07.12.2017 04:00:00 -2,0 -3,3 2 1 9 5 E 0,0
07.12.2017 03:00:00 -2,6 -3,9 4 2 9 5 WSW 0,0
07.12.2017 02:00:00 -2,8 -4,2 2 1 12 6 W 0,0
07.12.2017 01:00:00 -3,6 -4,8 5 3 10 6 W -
07.12.2017 00:00:00 -3,7 -5,1 3 1 10 5 W 0,0
06.12.2017 23:00:00 -3,4 -4,8 6 3 13 7 SW 0,0
06.12.2017 22:00:00 -4,1 -5,1 4 2 13 7 WSW 0,0
06.12.2017 21:00:00 -3,2 -4,2 6 4 12 6 SW 0,0
06.12.2017 20:00:00 -3,3 -4,5 5 3 13 7 SW 0,0
06.12.2017 19:00:00 -3,2 -4,5 8 4 14 8 SW -
06.12.2017 18:00:00 -2,8 -4,5 5 3 12 6 SSW 0,0
06.12.2017 17:00:00 -1,3 -5,1 5 3 10 6 SSW 0,0
06.12.2017 16:00:00 0,3 -5,1 7 4 12 6 S 0,0
06.12.2017 15:00:00 0,4 -5,7 9 5 14 7 S 0,0
06.12.2017 14:00:00 0,0 -6,0 9 5 15 8 S 0,0
06.12.2017 13:00:00 -1,2 -6,7 9 5 14 8 S -
06.12.2017 12:00:00 -2,4 -7,5 7 4 13 7 SSW 0,0
06.12.2017 11:00:00 -4,1 -7,8 0 0 4 2 WSW 0,0
06.12.2017 10:00:00 -5,0 -7,5 0 0 7 4 N 0,0
06.12.2017 09:00:00 -9,9 -11,2 2 1 8 5 W 0,0
06.12.2017 08:00:00 -10,0 -11,2 4 2 6 4 WSW 0,0
06.12.2017 07:00:00 -9,7 -10,8 3 2 9 5 W -
06.12.2017 06:00:00 -9,6 -10,8 3 2 6 3 W 0,0
06.12.2017 05:00:00 -9,9 -11,2 4 2 6 4 W 0,0
06.12.2017 04:00:00 -8,8 -10,3 5 3 11 6 W 0,0
06.12.2017 03:00:00 -8,8 -10,3 8 4 11 6 W 0,0
06.12.2017 02:00:00 -7,4 -8,6 4 2 6 4 WNW 0,0
06.12.2017 01:00:00 -8,0 -9,4 6 3 8 4 W -
06.12.2017 00:00:00 -6,9 -8,2 5 3 10 5 W 0,0
05.12.2017 23:00:00 -6,3 -7,8 5 3 8 4 W 0,0
05.12.2017 22:00:00 -6,3 -7,8 5 3 9 5 W 0,0
05.12.2017 21:00:00 -4,8 -6,0 4 2 8 4 W 0,0
05.12.2017 20:00:00 -3,9 -5,7 1 1 7 4 W 0,0
05.12.2017 19:00:00 -2,7 -5,1 5 3 7 4 WNW -
05.12.2017 18:00:00 -0,2 -4,8 1 0 5 3 WSW 0,0
05.12.2017 17:00:00 3,6 -3,3 0 0 5 3 N 0,0
05.12.2017 16:00:00 5,4 -2,2 3 2 6 3 S 0,0
05.12.2017 15:00:00 6,1 -2,7 0 0 5 3 ESE 0,0
05.12.2017 14:00:00 6,6 -1,7 1 0 4 2 S 0,0
05.12.2017 13:00:00 5,0 -0,7 3 2 9 5 SSE -
05.12.2017 12:00:00 1,8 -2,0 6 4 9 5 S 0,0
05.12.2017 11:00:00 0,1 -3,6 4 2 9 5 S 0,0
05.12.2017 10:00:00 -0,9 -4,5 7 4 13 7 WSW 0,0

tt = Température de l'air
td = dewpoint
ff = Vitesse du vent
fx = gusts
dd = Direction du vent
rr = Quantités de précipitations

stations d'obs. à proximité